sensor_id;sensor_type;location;lat;lon;timestamp;P1;durP1;ratioP1;P2;durP2;ratioP2
27424;SDS011;15244;49.088;11.886;2024-01-11T00:01:31;58.67;;;27.67;;
27424;SDS011;15244;49.088;11.886;2024-01-11T00:06:33;56.75;;;29.45;;
27424;SDS011;15244;49.088;11.886;2024-01-11T00:11:41;53.05;;;27.42;;
27424;SDS011;15244;49.088;11.886;2024-01-11T00:16:42;54.92;;;26.65;;
27424;SDS011;15244;49.088;11.886;2024-01-11T00:21:44;50.85;;;27.13;;
27424;SDS011;15244;49.088;11.886;2024-01-11T00:26:46;51.45;;;26.85;;
27424;SDS011;15244;49.088;11.886;2024-01-11T00:31:47;53.50;;;28.42;;
27424;SDS011;15244;49.088;11.886;2024-01-11T00:36:49;54.72;;;28.60;;
27424;SDS011;15244;49.088;11.886;2024-01-11T00:41:51;53.63;;;29.08;;
27424;SDS011;15244;49.088;11.886;2024-01-11T00:46:53;61.40;;;28.88;;
27424;SDS011;15244;49.088;11.886;2024-01-11T00:51:54;60.88;;;29.23;;
27424;SDS011;15244;49.088;11.886;2024-01-11T00:56:56;60.95;;;29.25;;
27424;SDS011;15244;49.088;11.886;2024-01-11T01:01:57;53.70;;;28.73;;
27424;SDS011;15244;49.088;11.886;2024-01-11T01:06:59;57.08;;;27.98;;
27424;SDS011;15244;49.088;11.886;2024-01-11T01:12:01;56.80;;;28.65;;
27424;SDS011;15244;49.088;11.886;2024-01-11T01:17:03;58.03;;;29.52;;
27424;SDS011;15244;49.088;11.886;2024-01-11T01:22:04;57.03;;;29.10;;
27424;SDS011;15244;49.088;11.886;2024-01-11T01:27:06;66.07;;;30.80;;
27424;SDS011;15244;49.088;11.886;2024-01-11T01:32:08;59.88;;;29.02;;
27424;SDS011;15244;49.088;11.886;2024-01-11T01:37:09;61.13;;;30.15;;
27424;SDS011;15244;49.088;11.886;2024-01-11T01:42:11;55.92;;;29.40;;
27424;SDS011;15244;49.088;11.886;2024-01-11T01:47:13;61.70;;;30.88;;
27424;SDS011;15244;49.088;11.886;2024-01-11T01:52:14;59.67;;;29.63;;
27424;SDS011;15244;49.088;11.886;2024-01-11T01:57:17;59.13;;;30.15;;
27424;SDS011;15244;49.088;11.886;2024-01-11T02:02:21;58.58;;;27.80;;
27424;SDS011;15244;49.088;11.886;2024-01-11T02:07:24;64.88;;;30.55;;
27424;SDS011;15244;49.088;11.886;2024-01-11T02:12:26;62.83;;;30.63;;
27424;SDS011;15244;49.088;11.886;2024-01-11T02:17:28;63.22;;;32.20;;
27424;SDS011;15244;49.088;11.886;2024-01-11T02:22:38;65.40;;;33.20;;
27424;SDS011;15244;49.088;11.886;2024-01-11T02:27:48;63.58;;;31.38;;
27424;SDS011;15244;49.088;11.886;2024-01-11T02:32:51;63.42;;;31.10;;
27424;SDS011;15244;49.088;11.886;2024-01-11T02:37:55;64.00;;;31.75;;
27424;SDS011;15244;49.088;11.886;2024-01-11T02:42:57;65.55;;;30.23;;
27424;SDS011;15244;49.088;11.886;2024-01-11T02:47:59;60.13;;;30.75;;
27424;SDS011;15244;49.088;11.886;2024-01-11T02:53:01;59.75;;;28.95;;
27424;SDS011;15244;49.088;11.886;2024-01-11T02:58:03;56.30;;;29.73;;
27424;SDS011;15244;49.088;11.886;2024-01-11T03:03:04;58.92;;;28.42;;
27424;SDS011;15244;49.088;11.886;2024-01-11T03:08:06;63.45;;;28.92;;
27424;SDS011;15244;49.088;11.886;2024-01-11T03:13:08;59.58;;;29.33;;
27424;SDS011;15244;49.088;11.886;2024-01-11T03:18:09;62.88;;;29.75;;
27424;SDS011;15244;49.088;11.886;2024-01-11T03:23:11;61.20;;;28.77;;
27424;SDS011;15244;49.088;11.886;2024-01-11T03:28:13;64.57;;;30.60;;
27424;SDS011;15244;49.088;11.886;2024-01-11T03:33:15;58.45;;;28.77;;
27424;SDS011;15244;49.088;11.886;2024-01-11T03:38:17;63.03;;;29.23;;
27424;SDS011;15244;49.088;11.886;2024-01-11T03:43:18;57.03;;;29.98;;
27424;SDS011;15244;49.088;11.886;2024-01-11T03:48:20;66.82;;;29.95;;
27424;SDS011;15244;49.088;11.886;2024-01-11T03:53:22;64.45;;;30.27;;
27424;SDS011;15244;49.088;11.886;2024-01-11T03:58:24;67.82;;;31.48;;
27424;SDS011;15244;49.088;11.886;2024-01-11T04:03:25;63.92;;;30.17;;
27424;SDS011;15244;49.088;11.886;2024-01-11T04:08:27;61.53;;;29.70;;
27424;SDS011;15244;49.088;11.886;2024-01-11T04:13:29;66.32;;;31.00;;
27424;SDS011;15244;49.088;11.886;2024-01-11T04:18:30;56.17;;;29.42;;
27424;SDS011;15244;49.088;11.886;2024-01-11T04:23:32;63.78;;;29.73;;
27424;SDS011;15244;49.088;11.886;2024-01-11T04:28:34;57.75;;;28.58;;
27424;SDS011;15244;49.088;11.886;2024-01-11T04:33:41;60.58;;;30.02;;
27424;SDS011;15244;49.088;11.886;2024-01-11T04:38:43;69.28;;;29.95;;
27424;SDS011;15244;49.088;11.886;2024-01-11T04:43:48;64.85;;;30.83;;
27424;SDS011;15244;49.088;11.886;2024-01-11T04:48:49;59.10;;;28.88;;
27424;SDS011;15244;49.088;11.886;2024-01-11T04:53:51;60.38;;;29.23;;
27424;SDS011;15244;49.088;11.886;2024-01-11T04:58:53;62.33;;;29.95;;
27424;SDS011;15244;49.088;11.886;2024-01-11T05:03:54;61.38;;;28.75;;
27424;SDS011;15244;49.088;11.886;2024-01-11T05:08:57;58.83;;;29.75;;
27424;SDS011;15244;49.088;11.886;2024-01-11T05:13:58;59.67;;;28.55;;
27424;SDS011;15244;49.088;11.886;2024-01-11T05:19:00;56.67;;;28.45;;
27424;SDS011;15244;49.088;11.886;2024-01-11T05:24:01;55.83;;;29.08;;
27424;SDS011;15244;49.088;11.886;2024-01-11T05:29:03;57.00;;;29.42;;
27424;SDS011;15244;49.088;11.886;2024-01-11T05:34:06;61.17;;;28.40;;
27424;SDS011;15244;49.088;11.886;2024-01-11T05:39:08;65.35;;;30.27;;
27424;SDS011;15244;49.088;11.886;2024-01-11T05:44:09;62.20;;;29.42;;
27424;SDS011;15244;49.088;11.886;2024-01-11T05:49:11;60.90;;;30.40;;
27424;SDS011;15244;49.088;11.886;2024-01-11T05:54:13;61.38;;;28.10;;
27424;SDS011;15244;49.088;11.886;2024-01-11T05:59:14;60.28;;;30.27;;
27424;SDS011;15244;49.088;11.886;2024-01-11T06:04:16;60.70;;;29.50;;
27424;SDS011;15244;49.088;11.886;2024-01-11T06:09:18;60.22;;;29.23;;
27424;SDS011;15244;49.088;11.886;2024-01-11T06:14:19;60.63;;;29.58;;
27424;SDS011;15244;49.088;11.886;2024-01-11T06:19:22;58.05;;;29.73;;
27424;SDS011;15244;49.088;11.886;2024-01-11T06:24:24;58.35;;;28.33;;
27424;SDS011;15244;49.088;11.886;2024-01-11T06:29:25;60.55;;;29.73;;
27424;SDS011;15244;49.088;11.886;2024-01-11T06:34:27;65.78;;;29.02;;
27424;SDS011;15244;49.088;11.886;2024-01-11T06:39:29;59.42;;;28.98;;
27424;SDS011;15244;49.088;11.886;2024-01-11T06:44:31;57.03;;;28.00;;
27424;SDS011;15244;49.088;11.886;2024-01-11T06:49:33;58.70;;;29.45;;
27424;SDS011;15244;49.088;11.886;2024-01-11T06:54:35;61.35;;;29.25;;
27424;SDS011;15244;49.088;11.886;2024-01-11T06:59:37;62.90;;;29.05;;
27424;SDS011;15244;49.088;11.886;2024-01-11T07:04:38;61.65;;;28.38;;
27424;SDS011;15244;49.088;11.886;2024-01-11T07:09:44;61.33;;;29.17;;
27424;SDS011;15244;49.088;11.886;2024-01-11T07:14:46;63.25;;;29.58;;
27424;SDS011;15244;49.088;11.886;2024-01-11T07:19:48;54.67;;;28.30;;
27424;SDS011;15244;49.088;11.886;2024-01-11T07:24:49;62.55;;;30.63;;
27424;SDS011;15244;49.088;11.886;2024-01-11T07:29:51;60.53;;;29.15;;
27424;SDS011;15244;49.088;11.886;2024-01-11T07:34:52;62.63;;;30.27;;
27424;SDS011;15244;49.088;11.886;2024-01-11T07:39:54;61.30;;;29.50;;
27424;SDS011;15244;49.088;11.886;2024-01-11T07:44:56;58.80;;;28.45;;
27424;SDS011;15244;49.088;11.886;2024-01-11T07:49:57;63.47;;;30.00;;
27424;SDS011;15244;49.088;11.886;2024-01-11T07:54:59;55.28;;;29.23;;
27424;SDS011;15244;49.088;11.886;2024-01-11T08:00:08;54.95;;;28.63;;
27424;SDS011;15244;49.088;11.886;2024-01-11T08:05:13;55.00;;;28.77;;
27424;SDS011;15244;49.088;11.886;2024-01-11T08:10:15;53.83;;;27.67;;
27424;SDS011;15244;49.088;11.886;2024-01-11T08:15:16;58.03;;;30.05;;
27424;SDS011;15244;49.088;11.886;2024-01-11T08:20:19;56.53;;;28.77;;
27424;SDS011;15244;49.088;11.886;2024-01-11T08:25:20;56.08;;;28.55;;
27424;SDS011;15244;49.088;11.886;2024-01-11T08:30:22;56.25;;;28.98;;
27424;SDS011;15244;49.088;11.886;2024-01-11T08:35:24;58.00;;;29.23;;
27424;SDS011;15244;49.088;11.886;2024-01-11T08:40:25;58.53;;;28.45;;
27424;SDS011;15244;49.088;11.886;2024-01-11T08:45:27;54.17;;;28.17;;
27424;SDS011;15244;49.088;11.886;2024-01-11T08:50:31;60.47;;;28.80;;
27424;SDS011;15244;49.088;11.886;2024-01-11T08:55:34;52.08;;;27.75;;
27424;SDS011;15244;49.088;11.886;2024-01-11T09:00:36;53.70;;;28.50;;
27424;SDS011;15244;49.088;11.886;2024-01-11T09:05:38;60.95;;;28.63;;
27424;SDS011;15244;49.088;11.886;2024-01-11T09:10:41;59.45;;;27.55;;
27424;SDS011;15244;49.088;11.886;2024-01-11T09:15:43;52.83;;;27.70;;
27424;SDS011;15244;49.088;11.886;2024-01-11T09:20:45;58.85;;;27.63;;
27424;SDS011;15244;49.088;11.886;2024-01-11T09:25:47;57.08;;;28.83;;
27424;SDS011;15244;49.088;11.886;2024-01-11T09:30:49;52.28;;;28.42;;
27424;SDS011;15244;49.088;11.886;2024-01-11T09:35:51;54.53;;;27.27;;
27424;SDS011;15244;49.088;11.886;2024-01-11T09:40:58;56.13;;;27.25;;
27424;SDS011;15244;49.088;11.886;2024-01-11T09:46:06;50.17;;;26.77;;
27424;SDS011;15244;49.088;11.886;2024-01-11T09:51:08;52.85;;;27.95;;
27424;SDS011;15244;49.088;11.886;2024-01-11T09:56:12;55.47;;;26.98;;
27424;SDS011;15244;49.088;11.886;2024-01-11T10:01:14;54.05;;;25.52;;
27424;SDS011;15244;49.088;11.886;2024-01-11T10:06:16;49.03;;;25.45;;
27424;SDS011;15244;49.088;11.886;2024-01-11T10:11:18;47.92;;;25.00;;
27424;SDS011;15244;49.088;11.886;2024-01-11T10:16:20;53.13;;;27.85;;
27424;SDS011;15244;49.088;11.886;2024-01-11T10:21:23;54.35;;;27.20;;
27424;SDS011;15244;49.088;11.886;2024-01-11T10:26:25;56.42;;;27.77;;
27424;SDS011;15244;49.088;11.886;2024-01-11T10:31:30;48.80;;;25.77;;
27424;SDS011;15244;49.088;11.886;2024-01-11T10:36:31;50.58;;;25.58;;
27424;SDS011;15244;49.088;11.886;2024-01-11T10:41:38;46.70;;;25.73;;
27424;SDS011;15244;49.088;11.886;2024-01-11T10:46:42;46.42;;;26.27;;
27424;SDS011;15244;49.088;11.886;2024-01-11T10:51:49;45.35;;;24.85;;
27424;SDS011;15244;49.088;11.886;2024-01-11T10:57:07;47.95;;;25.77;;
27424;SDS011;15244;49.088;11.886;2024-01-11T11:02:10;55.65;;;27.95;;
27424;SDS011;15244;49.088;11.886;2024-01-11T11:07:17;48.38;;;26.08;;
27424;SDS011;15244;49.088;11.886;2024-01-11T11:12:20;50.72;;;26.25;;
27424;SDS011;15244;49.088;11.886;2024-01-11T11:17:23;43.55;;;22.52;;
27424;SDS011;15244;49.088;11.886;2024-01-11T11:22:26;43.55;;;24.38;;
27424;SDS011;15244;49.088;11.886;2024-01-11T11:27:28;48.60;;;22.98;;
27424;SDS011;15244;49.088;11.886;2024-01-11T11:32:37;40.50;;;24.00;;
27424;SDS011;15244;49.088;11.886;2024-01-11T11:37:40;44.35;;;24.55;;
27424;SDS011;15244;49.088;11.886;2024-01-11T11:42:42;44.72;;;25.52;;
27424;SDS011;15244;49.088;11.886;2024-01-11T11:47:43;42.53;;;23.10;;
27424;SDS011;15244;49.088;11.886;2024-01-11T11:52:47;40.47;;;22.75;;
27424;SDS011;15244;49.088;11.886;2024-01-11T11:57:56;38.40;;;23.23;;
27424;SDS011;15244;49.088;11.886;2024-01-11T12:02:58;41.25;;;21.85;;
27424;SDS011;15244;49.088;11.886;2024-01-11T12:08:00;39.15;;;22.25;;
27424;SDS011;15244;49.088;11.886;2024-01-11T12:13:02;40.47;;;22.35;;
27424;SDS011;15244;49.088;11.886;2024-01-11T12:18:03;36.58;;;20.88;;
27424;SDS011;15244;49.088;11.886;2024-01-11T12:23:06;39.22;;;21.08;;
27424;SDS011;15244;49.088;11.886;2024-01-11T12:28:07;33.40;;;20.63;;
27424;SDS011;15244;49.088;11.886;2024-01-11T12:33:09;37.22;;;21.38;;
27424;SDS011;15244;49.088;11.886;2024-01-11T12:38:12;37.30;;;21.17;;
27424;SDS011;15244;49.088;11.886;2024-01-11T12:43:13;34.80;;;20.35;;
27424;SDS011;15244;49.088;11.886;2024-01-11T12:48:16;32.85;;;19.45;;
27424;SDS011;15244;49.088;11.886;2024-01-11T12:53:20;41.22;;;19.92;;
27424;SDS011;15244;49.088;11.886;2024-01-11T12:58:22;30.92;;;18.95;;
27424;SDS011;15244;49.088;11.886;2024-01-11T13:03:24;36.00;;;20.05;;
27424;SDS011;15244;49.088;11.886;2024-01-11T13:08:28;31.23;;;18.65;;
27424;SDS011;15244;49.088;11.886;2024-01-11T13:13:30;31.05;;;19.70;;
27424;SDS011;15244;49.088;11.886;2024-01-11T13:18:32;31.40;;;19.20;;
27424;SDS011;15244;49.088;11.886;2024-01-11T13:23:34;34.30;;;20.20;;
27424;SDS011;15244;49.088;11.886;2024-01-11T13:28:35;38.03;;;20.17;;
27424;SDS011;15244;49.088;11.886;2024-01-11T13:33:37;35.05;;;20.38;;
27424;SDS011;15244;49.088;11.886;2024-01-11T13:38:40;30.73;;;19.52;;
27424;SDS011;15244;49.088;11.886;2024-01-11T13:43:42;37.60;;;19.48;;
27424;SDS011;15244;49.088;11.886;2024-01-11T13:48:45;33.13;;;18.75;;
27424;SDS011;15244;49.088;11.886;2024-01-11T13:53:47;32.58;;;18.55;;
27424;SDS011;15244;49.088;11.886;2024-01-11T13:58:49;33.55;;;18.75;;
27424;SDS011;15244;49.088;11.886;2024-01-11T14:03:51;35.47;;;19.67;;
27424;SDS011;15244;49.088;11.886;2024-01-11T14:08:52;29.48;;;18.00;;
27424;SDS011;15244;49.088;11.886;2024-01-11T14:13:54;33.00;;;19.38;;
27424;SDS011;15244;49.088;11.886;2024-01-11T14:18:56;34.35;;;19.80;;
27424;SDS011;15244;49.088;11.886;2024-01-11T14:23:58;34.22;;;20.02;;
27424;SDS011;15244;49.088;11.886;2024-01-11T14:28:59;28.05;;;17.73;;
27424;SDS011;15244;49.088;11.886;2024-01-11T14:34:02;32.92;;;19.38;;
27424;SDS011;15244;49.088;11.886;2024-01-11T14:39:04;32.80;;;18.90;;
27424;SDS011;15244;49.088;11.886;2024-01-11T14:44:06;92.55;;;33.92;;
27424;SDS011;15244;49.088;11.886;2024-01-11T14:49:08;36.13;;;20.58;;
27424;SDS011;15244;49.088;11.886;2024-01-11T14:54:09;28.60;;;17.70;;
27424;SDS011;15244;49.088;11.886;2024-01-11T14:59:11;31.77;;;18.38;;
27424;SDS011;15244;49.088;11.886;2024-01-11T15:04:13;36.08;;;19.95;;
27424;SDS011;15244;49.088;11.886;2024-01-11T15:09:15;29.30;;;18.42;;
27424;SDS011;15244;49.088;11.886;2024-01-11T15:14:17;30.05;;;18.90;;
27424;SDS011;15244;49.088;11.886;2024-01-11T15:19:18;29.50;;;18.13;;
27424;SDS011;15244;49.088;11.886;2024-01-11T15:24:20;31.08;;;18.55;;
27424;SDS011;15244;49.088;11.886;2024-01-11T15:29:22;31.95;;;19.13;;
27424;SDS011;15244;49.088;11.886;2024-01-11T15:34:24;31.08;;;18.13;;
27424;SDS011;15244;49.088;11.886;2024-01-11T15:39:26;34.17;;;18.00;;
27424;SDS011;15244;49.088;11.886;2024-01-11T15:44:31;34.55;;;18.63;;
27424;SDS011;15244;49.088;11.886;2024-01-11T15:49:35;33.58;;;18.60;;
27424;SDS011;15244;49.088;11.886;2024-01-11T15:54:37;34.65;;;18.50;;
27424;SDS011;15244;49.088;11.886;2024-01-11T15:59:39;33.45;;;18.15;;
27424;SDS011;15244;49.088;11.886;2024-01-11T16:04:41;32.70;;;18.27;;
27424;SDS011;15244;49.088;11.886;2024-01-11T16:09:44;35.35;;;18.25;;
27424;SDS011;15244;49.088;11.886;2024-01-11T16:14:46;30.73;;;18.40;;
27424;SDS011;15244;49.088;11.886;2024-01-11T16:19:47;37.40;;;20.02;;
27424;SDS011;15244;49.088;11.886;2024-01-11T16:24:49;32.72;;;20.05;;
27424;SDS011;15244;49.088;11.886;2024-01-11T16:29:51;33.70;;;19.52;;
27424;SDS011;15244;49.088;11.886;2024-01-11T16:34:53;53.58;;;27.80;;
27424;SDS011;15244;49.088;11.886;2024-01-11T16:39:54;38.25;;;21.40;;
27424;SDS011;15244;49.088;11.886;2024-01-11T16:44:56;42.35;;;22.92;;
27424;SDS011;15244;49.088;11.886;2024-01-11T16:49:58;35.63;;;19.58;;
27424;SDS011;15244;49.088;11.886;2024-01-11T16:54:59;32.58;;;19.48;;
27424;SDS011;15244;49.088;11.886;2024-01-11T17:00:01;36.78;;;20.38;;
27424;SDS011;15244;49.088;11.886;2024-01-11T17:05:02;35.88;;;20.70;;
27424;SDS011;15244;49.088;11.886;2024-01-11T17:10:05;37.67;;;20.70;;
27424;SDS011;15244;49.088;11.886;2024-01-11T17:15:07;33.80;;;19.58;;
27424;SDS011;15244;49.088;11.886;2024-01-11T17:20:09;30.75;;;19.02;;
27424;SDS011;15244;49.088;11.886;2024-01-11T17:25:12;36.25;;;19.50;;
27424;SDS011;15244;49.088;11.886;2024-01-11T17:30:13;35.88;;;20.08;;
27424;SDS011;15244;49.088;11.886;2024-01-11T17:35:15;34.78;;;19.23;;
27424;SDS011;15244;49.088;11.886;2024-01-11T17:40:17;34.88;;;19.80;;
27424;SDS011;15244;49.088;11.886;2024-01-11T17:45:18;35.22;;;20.23;;
27424;SDS011;15244;49.088;11.886;2024-01-11T17:50:23;64.03;;;31.70;;
27424;SDS011;15244;49.088;11.886;2024-01-11T17:55:25;37.08;;;21.33;;
27424;SDS011;15244;49.088;11.886;2024-01-11T18:00:26;36.33;;;21.77;;
27424;SDS011;15244;49.088;11.886;2024-01-11T18:05:31;47.67;;;25.00;;
27424;SDS011;15244;49.088;11.886;2024-01-11T18:10:34;40.22;;;23.15;;
27424;SDS011;15244;49.088;11.886;2024-01-11T18:15:37;37.63;;;22.10;;
27424;SDS011;15244;49.088;11.886;2024-01-11T18:20:38;37.88;;;20.60;;
27424;SDS011;15244;49.088;11.886;2024-01-11T18:25:40;36.20;;;20.98;;
27424;SDS011;15244;49.088;11.886;2024-01-11T18:30:41;36.20;;;20.85;;
27424;SDS011;15244;49.088;11.886;2024-01-11T18:35:43;42.25;;;21.67;;
27424;SDS011;15244;49.088;11.886;2024-01-11T18:40:45;35.67;;;21.13;;
27424;SDS011;15244;49.088;11.886;2024-01-11T18:45:47;38.42;;;21.17;;
27424;SDS011;15244;49.088;11.886;2024-01-11T18:50:52;40.30;;;21.05;;
27424;SDS011;15244;49.088;11.886;2024-01-11T18:55:54;39.10;;;21.23;;
27424;SDS011;15244;49.088;11.886;2024-01-11T19:00:58;37.00;;;20.10;;
27424;SDS011;15244;49.088;11.886;2024-01-11T19:05:59;35.17;;;19.98;;
27424;SDS011;15244;49.088;11.886;2024-01-11T19:11:01;36.45;;;19.77;;
27424;SDS011;15244;49.088;11.886;2024-01-11T19:16:03;34.63;;;20.27;;
27424;SDS011;15244;49.088;11.886;2024-01-11T19:21:05;37.95;;;21.27;;
27424;SDS011;15244;49.088;11.886;2024-01-11T19:26:08;33.92;;;18.40;;
27424;SDS011;15244;49.088;11.886;2024-01-11T19:31:10;37.22;;;20.85;;
27424;SDS011;15244;49.088;11.886;2024-01-11T19:36:12;42.17;;;21.30;;
27424;SDS011;15244;49.088;11.886;2024-01-11T19:41:19;35.72;;;20.50;;
27424;SDS011;15244;49.088;11.886;2024-01-11T19:46:22;36.70;;;20.85;;
27424;SDS011;15244;49.088;11.886;2024-01-11T19:51:23;38.80;;;21.45;;
27424;SDS011;15244;49.088;11.886;2024-01-11T19:56:25;36.22;;;21.40;;
27424;SDS011;15244;49.088;11.886;2024-01-11T20:01:32;35.58;;;20.27;;
27424;SDS011;15244;49.088;11.886;2024-01-11T20:06:34;41.97;;;22.55;;
27424;SDS011;15244;49.088;11.886;2024-01-11T20:11:36;35.88;;;20.42;;
27424;SDS011;15244;49.088;11.886;2024-01-11T20:16:40;39.17;;;21.33;;
27424;SDS011;15244;49.088;11.886;2024-01-11T20:21:42;36.78;;;21.15;;
27424;SDS011;15244;49.088;11.886;2024-01-11T20:26:45;40.67;;;21.92;;
27424;SDS011;15244;49.088;11.886;2024-01-11T20:31:47;42.58;;;21.48;;
27424;SDS011;15244;49.088;11.886;2024-01-11T20:36:49;37.78;;;20.55;;
27424;SDS011;15244;49.088;11.886;2024-01-11T20:41:50;37.35;;;21.33;;
27424;SDS011;15244;49.088;11.886;2024-01-11T20:46:53;37.42;;;21.25;;
27424;SDS011;15244;49.088;11.886;2024-01-11T20:51:55;38.75;;;22.02;;
27424;SDS011;15244;49.088;11.886;2024-01-11T20:56:59;37.03;;;21.25;;
27424;SDS011;15244;49.088;11.886;2024-01-11T21:02:01;41.75;;;22.73;;
27424;SDS011;15244;49.088;11.886;2024-01-11T21:07:04;35.60;;;20.67;;
27424;SDS011;15244;49.088;11.886;2024-01-11T21:12:06;37.38;;;20.48;;
27424;SDS011;15244;49.088;11.886;2024-01-11T21:17:08;37.53;;;20.40;;
27424;SDS011;15244;49.088;11.886;2024-01-11T21:22:09;34.22;;;21.00;;
27424;SDS011;15244;49.088;11.886;2024-01-11T21:27:11;36.20;;;20.35;;
27424;SDS011;15244;49.088;11.886;2024-01-11T21:32:13;37.85;;;20.45;;
27424;SDS011;15244;49.088;11.886;2024-01-11T21:37:15;40.75;;;21.23;;
27424;SDS011;15244;49.088;11.886;2024-01-11T21:42:17;36.22;;;18.50;;
27424;SDS011;15244;49.088;11.886;2024-01-11T21:47:19;32.72;;;18.30;;
27424;SDS011;15244;49.088;11.886;2024-01-11T21:52:20;33.15;;;19.75;;
27424;SDS011;15244;49.088;11.886;2024-01-11T21:57:24;36.90;;;20.80;;
27424;SDS011;15244;49.088;11.886;2024-01-11T22:02:26;74.88;;;32.92;;
27424;SDS011;15244;49.088;11.886;2024-01-11T22:07:27;38.72;;;21.08;;
27424;SDS011;15244;49.088;11.886;2024-01-11T22:12:29;35.95;;;20.05;;
27424;SDS011;15244;49.088;11.886;2024-01-11T22:17:31;33.03;;;19.05;;
27424;SDS011;15244;49.088;11.886;2024-01-11T22:22:32;36.72;;;20.00;;
27424;SDS011;15244;49.088;11.886;2024-01-11T22:27:34;34.70;;;19.30;;
27424;SDS011;15244;49.088;11.886;2024-01-11T22:32:36;34.10;;;19.13;;
27424;SDS011;15244;49.088;11.886;2024-01-11T22:37:38;35.40;;;18.80;;
27424;SDS011;15244;49.088;11.886;2024-01-11T22:42:40;31.98;;;19.50;;
27424;SDS011;15244;49.088;11.886;2024-01-11T22:47:41;33.63;;;19.80;;
27424;SDS011;15244;49.088;11.886;2024-01-11T22:52:43;32.45;;;19.70;;
27424;SDS011;15244;49.088;11.886;2024-01-11T22:57:45;37.20;;;19.83;;
27424;SDS011;15244;49.088;11.886;2024-01-11T23:02:47;36.38;;;20.48;;
27424;SDS011;15244;49.088;11.886;2024-01-11T23:07:50;35.20;;;20.08;;
27424;SDS011;15244;49.088;11.886;2024-01-11T23:12:52;37.30;;;20.50;;
27424;SDS011;15244;49.088;11.886;2024-01-11T23:17:53;34.45;;;19.08;;
27424;SDS011;15244;49.088;11.886;2024-01-11T23:22:55;33.92;;;18.75;;
27424;SDS011;15244;49.088;11.886;2024-01-11T23:27:58;30.13;;;16.27;;
27424;SDS011;15244;49.088;11.886;2024-01-11T23:33:01;25.58;;;14.75;;
27424;SDS011;15244;49.088;11.886;2024-01-11T23:38:03;24.52;;;14.60;;
27424;SDS011;15244;49.088;11.886;2024-01-11T23:43:05;25.13;;;13.50;;
27424;SDS011;15244;49.088;11.886;2024-01-11T23:48:07;19.95;;;12.15;;
27424;SDS011;15244;49.088;11.886;2024-01-11T23:53:10;29.20;;;14.93;;
27424;SDS011;15244;49.088;11.886;2024-01-11T23:58:11;26.83;;;14.55;;
